sensor_id;sensor_type;location;lat;lon;timestamp;temperature;humidity
7196;DHT22;3639;51.308;5.624;2023-04-24T00:00:33;10.20;99.90
7196;DHT22;3639;51.308;5.624;2023-04-24T00:02:59;10.10;99.90
7196;DHT22;3639;51.308;5.624;2023-04-24T00:05:25;10.10;99.90
7196;DHT22;3639;51.308;5.624;2023-04-24T00:07:51;10.10;99.90
7196;DHT22;3639;51.308;5.624;2023-04-24T00:10:18;10.10;99.90
7196;DHT22;3639;51.308;5.624;2023-04-24T00:12:44;10.10;99.90
7196;DHT22;3639;51.308;5.624;2023-04-24T00:15:10;10.10;99.90
7196;DHT22;3639;51.308;5.624;2023-04-24T00:17:36;10.10;99.90
7196;DHT22;3639;51.308;5.624;2023-04-24T00:20:02;10.10;99.90
7196;DHT22;3639;51.308;5.624;2023-04-24T00:22:30;10.00;99.90
7196;DHT22;3639;51.308;5.624;2023-04-24T00:24:56;10.00;99.90
7196;DHT22;3639;51.308;5.624;2023-04-24T00:27:22;10.00;99.90
7196;DHT22;3639;51.308;5.624;2023-04-24T00:29:48;10.00;99.90
7196;DHT22;3639;51.308;5.624;2023-04-24T00:32:14;10.00;99.90
7196;DHT22;3639;51.308;5.624;2023-04-24T00:34:40;10.00;99.90
7196;DHT22;3639;51.308;5.624;2023-04-24T00:37:06;10.00;99.90
7196;DHT22;3639;51.308;5.624;2023-04-24T00:39:32;9.90;99.90
7196;DHT22;3639;51.308;5.624;2023-04-24T00:41:58;9.90;99.90
7196;DHT22;3639;51.308;5.624;2023-04-24T00:44:24;9.90;99.90
7196;DHT22;3639;51.308;5.624;2023-04-24T00:46:50;9.90;99.90
7196;DHT22;3639;51.308;5.624;2023-04-24T00:49:23;9.90;99.90
7196;DHT22;3639;51.308;5.624;2023-04-24T00:51:49;9.90;99.90
7196;DHT22;3639;51.308;5.624;2023-04-24T00:54:17;9.90;99.90
7196;DHT22;3639;51.308;5.624;2023-04-24T00:56:43;9.90;99.90
7196;DHT22;3639;51.308;5.624;2023-04-24T00:59:09;9.90;99.90
7196;DHT22;3639;51.308;5.624;2023-04-24T01:01:35;9.90;99.90
7196;DHT22;3639;51.308;5.624;2023-04-24T01:04:01;9.90;99.90
7196;DHT22;3639;51.308;5.624;2023-04-24T01:06:28;9.80;99.90
7196;DHT22;3639;51.308;5.624;2023-04-24T01:08:54;9.80;99.90
7196;DHT22;3639;51.308;5.624;2023-04-24T01:11:24;9.80;99.90
7196;DHT22;3639;51.308;5.624;2023-04-24T01:13:50;9.80;99.90
7196;DHT22;3639;51.308;5.624;2023-04-24T01:16:16;9.70;99.90
7196;DHT22;3639;51.308;5.624;2023-04-24T01:18:43;9.80;99.90
7196;DHT22;3639;51.308;5.624;2023-04-24T01:21:13;9.80;99.90
7196;DHT22;3639;51.308;5.624;2023-04-24T01:23:39;9.80;99.90
7196;DHT22;3639;51.308;5.624;2023-04-24T01:26:05;9.80;99.90
7196;DHT22;3639;51.308;5.624;2023-04-24T01:28:31;9.80;99.90
7196;DHT22;3639;51.308;5.624;2023-04-24T01:30:57;9.70;99.90
7196;DHT22;3639;51.308;5.624;2023-04-24T01:33:22;9.70;99.90
7196;DHT22;3639;51.308;5.624;2023-04-24T01:35:49;9.80;99.90
7196;DHT22;3639;51.308;5.624;2023-04-24T01:38:14;9.80;99.90
7196;DHT22;3639;51.308;5.624;2023-04-24T01:40:40;9.80;99.90
7196;DHT22;3639;51.308;5.624;2023-04-24T01:43:06;9.70;99.90
7196;DHT22;3639;51.308;5.624;2023-04-24T01:45:32;9.70;99.90
7196;DHT22;3639;51.308;5.624;2023-04-24T01:47:58;9.70;99.90
7196;DHT22;3639;51.308;5.624;2023-04-24T01:50:24;9.70;99.90
7196;DHT22;3639;51.308;5.624;2023-04-24T01:52:49;9.70;99.90
7196;DHT22;3639;51.308;5.624;2023-04-24T01:55:15;9.70;99.90
7196;DHT22;3639;51.308;5.624;2023-04-24T01:57:41;9.70;99.90
7196;DHT22;3639;51.308;5.624;2023-04-24T02:00:07;9.80;99.90
7196;DHT22;3639;51.308;5.624;2023-04-24T02:02:33;9.80;99.90
7196;DHT22;3639;51.308;5.624;2023-04-24T02:04:59;9.80;99.90
7196;DHT22;3639;51.308;5.624;2023-04-24T02:07:24;9.80;99.90
7196;DHT22;3639;51.308;5.624;2023-04-24T02:09:50;9.80;99.90
7196;DHT22;3639;51.308;5.624;2023-04-24T02:12:16;9.80;99.90
7196;DHT22;3639;51.308;5.624;2023-04-24T02:14:43;9.80;99.90
7196;DHT22;3639;51.308;5.624;2023-04-24T02:17:09;9.80;99.90
7196;DHT22;3639;51.308;5.624;2023-04-24T02:19:35;9.80;99.90
7196;DHT22;3639;51.308;5.624;2023-04-24T02:22:00;9.80;99.90
7196;DHT22;3639;51.308;5.624;2023-04-24T02:24:26;9.80;99.90
7196;DHT22;3639;51.308;5.624;2023-04-24T02:26:51;9.80;99.90
7196;DHT22;3639;51.308;5.624;2023-04-24T02:29:17;9.80;99.90
7196;DHT22;3639;51.308;5.624;2023-04-24T02:31:43;9.80;99.90
7196;DHT22;3639;51.308;5.624;2023-04-24T02:34:09;9.90;99.90
7196;DHT22;3639;51.308;5.624;2023-04-24T02:36:34;9.80;99.90
7196;DHT22;3639;51.308;5.624;2023-04-24T02:39:00;9.80;99.90
7196;DHT22;3639;51.308;5.624;2023-04-24T02:41:26;9.80;99.90
7196;DHT22;3639;51.308;5.624;2023-04-24T02:43:57;9.90;99.90
7196;DHT22;3639;51.308;5.624;2023-04-24T02:46:23;9.80;99.90
7196;DHT22;3639;51.308;5.624;2023-04-24T02:48:48;9.80;99.90
7196;DHT22;3639;51.308;5.624;2023-04-24T02:51:14;9.80;99.90
7196;DHT22;3639;51.308;5.624;2023-04-24T02:53:39;9.80;99.90
7196;DHT22;3639;51.308;5.624;2023-04-24T02:56:05;9.90;99.90
7196;DHT22;3639;51.308;5.624;2023-04-24T02:58:31;9.80;99.90
7196;DHT22;3639;51.308;5.624;2023-04-24T03:00:56;9.80;99.90
7196;DHT22;3639;51.308;5.624;2023-04-24T03:03:22;9.70;99.90
7196;DHT22;3639;51.308;5.624;2023-04-24T03:05:48;9.70;99.90
7196;DHT22;3639;51.308;5.624;2023-04-24T03:08:13;9.60;99.90
7196;DHT22;3639;51.308;5.624;2023-04-24T03:10:39;9.60;99.90
7196;DHT22;3639;51.308;5.624;2023-04-24T03:13:05;9.50;99.90
7196;DHT22;3639;51.308;5.624;2023-04-24T03:15:31;9.50;99.90
7196;DHT22;3639;51.308;5.624;2023-04-24T03:17:57;9.50;99.90
7196;DHT22;3639;51.308;5.624;2023-04-24T03:20:22;9.50;99.90
7196;DHT22;3639;51.308;5.624;2023-04-24T03:22:48;9.50;99.90
7196;DHT22;3639;51.308;5.624;2023-04-24T03:25:13;9.60;99.90
7196;DHT22;3639;51.308;5.624;2023-04-24T03:27:39;9.60;99.90
7196;DHT22;3639;51.308;5.624;2023-04-24T03:30:06;9.60;99.90
7196;DHT22;3639;51.308;5.624;2023-04-24T03:32:32;9.60;99.90
7196;DHT22;3639;51.308;5.624;2023-04-24T03:34:58;9.60;99.90
7196;DHT22;3639;51.308;5.624;2023-04-24T03:37:24;9.60;99.90
7196;DHT22;3639;51.308;5.624;2023-04-24T03:39:49;9.60;99.90
7196;DHT22;3639;51.308;5.624;2023-04-24T03:42:15;9.60;99.90
7196;DHT22;3639;51.308;5.624;2023-04-24T03:44:41;9.60;99.90
7196;DHT22;3639;51.308;5.624;2023-04-24T03:47:06;9.60;99.90
7196;DHT22;3639;51.308;5.624;2023-04-24T03:49:32;9.60;99.90
7196;DHT22;3639;51.308;5.624;2023-04-24T03:51:58;9.60;99.90
7196;DHT22;3639;51.308;5.624;2023-04-24T03:54:23;9.60;99.90
7196;DHT22;3639;51.308;5.624;2023-04-24T03:56:49;9.60;99.90
7196;DHT22;3639;51.308;5.624;2023-04-24T03:59:15;9.50;99.90
7196;DHT22;3639;51.308;5.624;2023-04-24T04:01:40;9.50;99.90
7196;DHT22;3639;51.308;5.624;2023-04-24T04:04:06;9.50;99.90
7196;DHT22;3639;51.308;5.624;2023-04-24T04:06:33;9.50;99.90
7196;DHT22;3639;51.308;5.624;2023-04-24T04:08:59;9.40;99.90
7196;DHT22;3639;51.308;5.624;2023-04-24T04:11:25;9.40;99.90
7196;DHT22;3639;51.308;5.624;2023-04-24T04:13:51;9.40;99.90
7196;DHT22;3639;51.308;5.624;2023-04-24T04:16:16;9.30;99.90
7196;DHT22;3639;51.308;5.624;2023-04-24T04:18:43;9.30;99.90
7196;DHT22;3639;51.308;5.624;2023-04-24T04:21:09;9.30;99.90
7196;DHT22;3639;51.308;5.624;2023-04-24T04:23:35;9.30;99.90
7196;DHT22;3639;51.308;5.624;2023-04-24T04:26:01;9.30;99.90
7196;DHT22;3639;51.308;5.624;2023-04-24T04:28:27;9.30;99.90
7196;DHT22;3639;51.308;5.624;2023-04-24T04:30:53;9.30;99.90
7196;DHT22;3639;51.308;5.624;2023-04-24T04:33:25;9.20;99.90
7196;DHT22;3639;51.308;5.624;2023-04-24T04:35:51;9.10;99.90
7196;DHT22;3639;51.308;5.624;2023-04-24T04:38:18;9.10;99.90
7196;DHT22;3639;51.308;5.624;2023-04-24T04:40:45;9.10;99.90
7196;DHT22;3639;51.308;5.624;2023-04-24T04:43:11;9.00;99.90
7196;DHT22;3639;51.308;5.624;2023-04-24T04:45:38;9.10;99.90
7196;DHT22;3639;51.308;5.624;2023-04-24T04:48:05;9.00;99.90
7196;DHT22;3639;51.308;5.624;2023-04-24T04:50:33;9.00;99.90
7196;DHT22;3639;51.308;5.624;2023-04-24T04:52:58;9.00;99.90
7196;DHT22;3639;51.308;5.624;2023-04-24T04:55:24;9.00;99.90
7196;DHT22;3639;51.308;5.624;2023-04-24T04:57:50;8.90;99.90
7196;DHT22;3639;51.308;5.624;2023-04-24T05:00:16;8.80;99.90
7196;DHT22;3639;51.308;5.624;2023-04-24T05:02:42;8.80;99.90
7196;DHT22;3639;51.308;5.624;2023-04-24T05:05:08;8.80;99.90
7196;DHT22;3639;51.308;5.624;2023-04-24T05:07:34;8.80;99.90
7196;DHT22;3639;51.308;5.624;2023-04-24T05:10:00;8.80;99.90
7196;DHT22;3639;51.308;5.624;2023-04-24T05:12:25;8.80;99.90
7196;DHT22;3639;51.308;5.624;2023-04-24T05:14:52;8.80;99.90
7196;DHT22;3639;51.308;5.624;2023-04-24T05:17:17;8.70;99.90
7196;DHT22;3639;51.308;5.624;2023-04-24T05:19:43;8.70;99.90
7196;DHT22;3639;51.308;5.624;2023-04-24T05:22:09;8.80;99.90
7196;DHT22;3639;51.308;5.624;2023-04-24T05:24:38;8.80;99.90
7196;DHT22;3639;51.308;5.624;2023-04-24T05:27:04;8.70;99.90
7196;DHT22;3639;51.308;5.624;2023-04-24T05:29:30;8.80;99.90
7196;DHT22;3639;51.308;5.624;2023-04-24T05:31:57;8.80;99.90
7196;DHT22;3639;51.308;5.624;2023-04-24T05:34:23;8.70;99.90
7196;DHT22;3639;51.308;5.624;2023-04-24T05:36:49;8.70;99.90
7196;DHT22;3639;51.308;5.624;2023-04-24T05:39:16;8.70;99.90
7196;DHT22;3639;51.308;5.624;2023-04-24T05:41:42;8.70;99.90
7196;DHT22;3639;51.308;5.624;2023-04-24T05:44:07;8.70;99.90
7196;DHT22;3639;51.308;5.624;2023-04-24T05:46:33;8.70;99.90
7196;DHT22;3639;51.308;5.624;2023-04-24T05:48:58;8.60;99.90
7196;DHT22;3639;51.308;5.624;2023-04-24T05:51:24;8.60;99.90
7196;DHT22;3639;51.308;5.624;2023-04-24T05:53:51;8.60;99.90
7196;DHT22;3639;51.308;5.624;2023-04-24T05:56:17;8.50;99.90
7196;DHT22;3639;51.308;5.624;2023-04-24T05:58:43;8.50;99.90
7196;DHT22;3639;51.308;5.624;2023-04-24T06:01:08;8.50;99.90
7196;DHT22;3639;51.308;5.624;2023-04-24T06:03:34;8.50;99.90
7196;DHT22;3639;51.308;5.624;2023-04-24T06:06:00;8.50;99.90
7196;DHT22;3639;51.308;5.624;2023-04-24T06:08:26;8.40;99.90
7196;DHT22;3639;51.308;5.624;2023-04-24T06:10:51;8.40;99.90
7196;DHT22;3639;51.308;5.624;2023-04-24T06:13:17;8.40;99.90
7196;DHT22;3639;51.308;5.624;2023-04-24T06:15:43;8.40;99.90
7196;DHT22;3639;51.308;5.624;2023-04-24T06:18:09;8.30;99.90
7196;DHT22;3639;51.308;5.624;2023-04-24T06:20:38;8.30;99.90
7196;DHT22;3639;51.308;5.624;2023-04-24T06:23:04;8.30;99.90
7196;DHT22;3639;51.308;5.624;2023-04-24T06:25:29;8.20;99.90
7196;DHT22;3639;51.308;5.624;2023-04-24T06:27:55;8.10;99.90
7196;DHT22;3639;51.308;5.624;2023-04-24T06:30:22;8.10;99.90
7196;DHT22;3639;51.308;5.624;2023-04-24T06:32:47;8.10;99.90
7196;DHT22;3639;51.308;5.624;2023-04-24T06:35:13;8.10;99.90
7196;DHT22;3639;51.308;5.624;2023-04-24T06:37:41;8.10;99.90
7196;DHT22;3639;51.308;5.624;2023-04-24T06:40:08;8.10;99.90
7196;DHT22;3639;51.308;5.624;2023-04-24T06:42:34;8.10;99.90
7196;DHT22;3639;51.308;5.624;2023-04-24T06:45:00;8.10;99.90
7196;DHT22;3639;51.308;5.624;2023-04-24T06:47:26;8.10;99.90
7196;DHT22;3639;51.308;5.624;2023-04-24T06:49:52;8.10;99.90
7196;DHT22;3639;51.308;5.624;2023-04-24T06:52:18;8.10;99.90
7196;DHT22;3639;51.308;5.624;2023-04-24T06:54:44;8.10;99.90
7196;DHT22;3639;51.308;5.624;2023-04-24T06:57:10;8.20;99.90
7196;DHT22;3639;51.308;5.624;2023-04-24T06:59:36;8.20;99.90
7196;DHT22;3639;51.308;5.624;2023-04-24T07:02:02;8.20;99.90
7196;DHT22;3639;51.308;5.624;2023-04-24T07:04:28;8.20;99.90
7196;DHT22;3639;51.308;5.624;2023-04-24T07:06:54;8.30;99.90
7196;DHT22;3639;51.308;5.624;2023-04-24T07:09:21;8.30;99.90
7196;DHT22;3639;51.308;5.624;2023-04-24T07:11:49;8.30;99.90
7196;DHT22;3639;51.308;5.624;2023-04-24T07:14:15;8.30;99.90
7196;DHT22;3639;51.308;5.624;2023-04-24T07:16:41;8.30;99.90
7196;DHT22;3639;51.308;5.624;2023-04-24T07:19:07;8.30;99.90
7196;DHT22;3639;51.308;5.624;2023-04-24T07:21:33;8.30;99.90
7196;DHT22;3639;51.308;5.624;2023-04-24T07:23:58;8.30;99.90
7196;DHT22;3639;51.308;5.624;2023-04-24T07:26:26;8.40;99.90
7196;DHT22;3639;51.308;5.624;2023-04-24T07:28:51;8.40;99.90
7196;DHT22;3639;51.308;5.624;2023-04-24T07:31:17;8.40;99.90
7196;DHT22;3639;51.308;5.624;2023-04-24T07:33:43;8.40;99.90
7196;DHT22;3639;51.308;5.624;2023-04-24T07:36:08;8.50;99.90
7196;DHT22;3639;51.308;5.624;2023-04-24T07:38:41;8.50;99.90
7196;DHT22;3639;51.308;5.624;2023-04-24T07:41:06;8.50;99.90
7196;DHT22;3639;51.308;5.624;2023-04-24T07:43:32;8.50;99.90
7196;DHT22;3639;51.308;5.624;2023-04-24T07:45:58;8.50;99.90
7196;DHT22;3639;51.308;5.624;2023-04-24T07:48:24;8.40;99.90
7196;DHT22;3639;51.308;5.624;2023-04-24T07:50:51;8.40;99.90
7196;DHT22;3639;51.308;5.624;2023-04-24T07:53:17;8.30;99.90
7196;DHT22;3639;51.308;5.624;2023-04-24T07:55:43;8.30;99.90
7196;DHT22;3639;51.308;5.624;2023-04-24T07:58:08;8.30;99.90
7196;DHT22;3639;51.308;5.624;2023-04-24T08:00:34;8.30;99.90
7196;DHT22;3639;51.308;5.624;2023-04-24T08:03:00;8.30;99.90
7196;DHT22;3639;51.308;5.624;2023-04-24T08:05:26;8.30;99.90
7196;DHT22;3639;51.308;5.624;2023-04-24T08:07:52;8.30;99.90
7196;DHT22;3639;51.308;5.624;2023-04-24T08:10:18;8.30;99.90
7196;DHT22;3639;51.308;5.624;2023-04-24T08:12:44;8.40;99.90
7196;DHT22;3639;51.308;5.624;2023-04-24T08:15:10;8.40;99.90
7196;DHT22;3639;51.308;5.624;2023-04-24T08:17:36;8.40;99.90
7196;DHT22;3639;51.308;5.624;2023-04-24T08:20:03;8.50;99.90
7196;DHT22;3639;51.308;5.624;2023-04-24T08:22:30;8.50;99.90
7196;DHT22;3639;51.308;5.624;2023-04-24T08:24:56;8.50;99.90
7196;DHT22;3639;51.308;5.624;2023-04-24T08:27:23;8.60;99.90
7196;DHT22;3639;51.308;5.624;2023-04-24T08:29:49;8.70;99.90
7196;DHT22;3639;51.308;5.624;2023-04-24T08:32:15;8.70;99.90
7196;DHT22;3639;51.308;5.624;2023-04-24T08:34:41;8.80;99.90
7196;DHT22;3639;51.308;5.624;2023-04-24T08:37:06;8.80;99.90
7196;DHT22;3639;51.308;5.624;2023-04-24T08:39:32;8.90;99.90
7196;DHT22;3639;51.308;5.624;2023-04-24T08:41:59;8.80;99.90
7196;DHT22;3639;51.308;5.624;2023-04-24T08:44:32;8.80;99.90
7196;DHT22;3639;51.308;5.624;2023-04-24T08:46:58;8.80;99.90
7196;DHT22;3639;51.308;5.624;2023-04-24T08:49:24;8.80;99.90
7196;DHT22;3639;51.308;5.624;2023-04-24T08:51:50;8.70;99.90
7196;DHT22;3639;51.308;5.624;2023-04-24T08:54:18;8.80;99.90
7196;DHT22;3639;51.308;5.624;2023-04-24T08:56:44;8.90;99.90
7196;DHT22;3639;51.308;5.624;2023-04-24T08:59:10;9.00;99.90
7196;DHT22;3639;51.308;5.624;2023-04-24T09:01:37;9.10;99.90
7196;DHT22;3639;51.308;5.624;2023-04-24T09:04:07;9.30;99.90
7196;DHT22;3639;51.308;5.624;2023-04-24T09:06:34;9.30;99.90
7196;DHT22;3639;51.308;5.624;2023-04-24T09:09:00;9.40;99.90
7196;DHT22;3639;51.308;5.624;2023-04-24T09:11:27;9.50;99.90
7196;DHT22;3639;51.308;5.624;2023-04-24T09:13:54;9.50;99.90
7196;DHT22;3639;51.308;5.624;2023-04-24T09:16:20;9.50;99.90
7196;DHT22;3639;51.308;5.624;2023-04-24T09:18:46;9.60;99.90
7196;DHT22;3639;51.308;5.624;2023-04-24T09:21:12;9.50;99.90
7196;DHT22;3639;51.308;5.624;2023-04-24T09:23:38;9.50;99.90
7196;DHT22;3639;51.308;5.624;2023-04-24T09:26:04;9.30;99.90
7196;DHT22;3639;51.308;5.624;2023-04-24T09:28:31;9.20;99.90
7196;DHT22;3639;51.308;5.624;2023-04-24T09:31:13;9.10;99.90
7196;DHT22;3639;51.308;5.624;2023-04-24T09:34:09;9.10;99.90
7196;DHT22;3639;51.308;5.624;2023-04-24T09:36:40;9.20;99.90
7196;DHT22;3639;51.308;5.624;2023-04-24T09:41:33;9.50;99.90
7196;DHT22;3639;51.308;5.624;2023-04-24T09:44:19;9.70;99.90
7196;DHT22;3639;51.308;5.624;2023-04-24T09:46:50;9.90;99.90
7196;DHT22;3639;51.308;5.624;2023-04-24T09:49:16;9.90;99.90
7196;DHT22;3639;51.308;5.624;2023-04-24T09:51:45;9.90;99.90
7196;DHT22;3639;51.308;5.624;2023-04-24T09:54:16;9.80;99.90
7196;DHT22;3639;51.308;5.624;2023-04-24T09:56:44;9.80;99.90
7196;DHT22;3639;51.308;5.624;2023-04-24T09:59:14;9.90;99.90
7196;DHT22;3639;51.308;5.624;2023-04-24T10:01:40;9.90;99.90
7196;DHT22;3639;51.308;5.624;2023-04-24T10:04:15;10.00;99.90
7196;DHT22;3639;51.308;5.624;2023-04-24T10:06:43;10.00;99.90
7196;DHT22;3639;51.308;5.624;2023-04-24T10:09:08;10.20;99.90
7196;DHT22;3639;51.308;5.624;2023-04-24T10:11:37;10.40;99.90
7196;DHT22;3639;51.308;5.624;2023-04-24T10:14:03;10.60;99.90
7196;DHT22;3639;51.308;5.624;2023-04-24T10:16:31;10.80;99.90
7196;DHT22;3639;51.308;5.624;2023-04-24T10:18:59;10.90;99.90
7196;DHT22;3639;51.308;5.624;2023-04-24T10:21:26;11.10;99.90
7196;DHT22;3639;51.308;5.624;2023-04-24T10:23:53;11.20;99.90
7196;DHT22;3639;51.308;5.624;2023-04-24T10:26:19;11.40;99.90
7196;DHT22;3639;51.308;5.624;2023-04-24T10:28:46;11.50;99.90
7196;DHT22;3639;51.308;5.624;2023-04-24T10:31:13;11.50;99.90
7196;DHT22;3639;51.308;5.624;2023-04-24T10:33:42;11.30;99.90
7196;DHT22;3639;51.308;5.624;2023-04-24T10:36:10;10.90;99.90
7196;DHT22;3639;51.308;5.624;2023-04-24T10:38:37;10.70;99.90
7196;DHT22;3639;51.308;5.624;2023-04-24T10:41:11;10.50;99.90
7196;DHT22;3639;51.308;5.624;2023-04-24T10:43:41;10.30;99.90
7196;DHT22;3639;51.308;5.624;2023-04-24T10:46:08;10.30;99.90
7196;DHT22;3639;51.308;5.624;2023-04-24T10:48:35;10.40;99.90
7196;DHT22;3639;51.308;5.624;2023-04-24T10:51:01;10.40;99.90
7196;DHT22;3639;51.308;5.624;2023-04-24T10:53:29;10.30;99.90
7196;DHT22;3639;51.308;5.624;2023-04-24T10:56:05;10.30;99.90
7196;DHT22;3639;51.308;5.624;2023-04-24T10:58:49;10.20;99.90
7196;DHT22;3639;51.308;5.624;2023-04-24T11:01:28;10.00;99.90
7196;DHT22;3639;51.308;5.624;2023-04-24T11:03:56;10.00;99.90
7196;DHT22;3639;51.308;5.624;2023-04-24T11:06:29;9.90;99.90
7196;DHT22;3639;51.308;5.624;2023-04-24T11:09:03;10.00;99.90
7196;DHT22;3639;51.308;5.624;2023-04-24T11:11:30;10.10;99.90
7196;DHT22;3639;51.308;5.624;2023-04-24T11:22:02;10.70;99.90
7196;DHT22;3639;51.308;5.624;2023-04-24T11:29:59;11.00;99.90
7196;DHT22;3639;51.308;5.624;2023-04-24T11:32:40;11.00;99.90
7196;DHT22;3639;51.308;5.624;2023-04-24T11:35:17;11.20;99.90
7196;DHT22;3639;51.308;5.624;2023-04-24T11:37:44;11.20;99.90
7196;DHT22;3639;51.308;5.624;2023-04-24T11:40:15;11.20;99.90
7196;DHT22;3639;51.308;5.624;2023-04-24T11:42:43;11.00;99.90
7196;DHT22;3639;51.308;5.624;2023-04-24T11:45:11;11.00;99.90
7196;DHT22;3639;51.308;5.624;2023-04-24T11:47:37;11.10;99.90
7196;DHT22;3639;51.308;5.624;2023-04-24T11:50:04;11.30;99.90
7196;DHT22;3639;51.308;5.624;2023-04-24T11:52:31;11.40;99.90
7196;DHT22;3639;51.308;5.624;2023-04-24T11:54:57;11.40;99.90
7196;DHT22;3639;51.308;5.624;2023-04-24T11:57:24;11.40;99.90
7196;DHT22;3639;51.308;5.624;2023-04-24T11:59:53;11.30;99.90
7196;DHT22;3639;51.308;5.624;2023-04-24T12:02:26;11.20;99.90
7196;DHT22;3639;51.308;5.624;2023-04-24T12:04:53;11.10;99.90
7196;DHT22;3639;51.308;5.624;2023-04-24T12:07:19;11.10;99.90
7196;DHT22;3639;51.308;5.624;2023-04-24T12:09:57;11.10;99.90
7196;DHT22;3639;51.308;5.624;2023-04-24T12:12:26;11.10;99.90
7196;DHT22;3639;51.308;5.624;2023-04-24T12:14:56;11.20;99.90
7196;DHT22;3639;51.308;5.624;2023-04-24T12:17:26;11.20;99.90
7196;DHT22;3639;51.308;5.624;2023-04-24T12:19:52;11.30;99.90
7196;DHT22;3639;51.308;5.624;2023-04-24T12:22:25;11.40;99.90
7196;DHT22;3639;51.308;5.624;2023-04-24T12:25:00;11.40;99.90
7196;DHT22;3639;51.308;5.624;2023-04-24T12:27:29;11.60;99.90
7196;DHT22;3639;51.308;5.624;2023-04-24T12:29:59;11.60;99.90
7196;DHT22;3639;51.308;5.624;2023-04-24T12:32:26;11.60;99.90
7196;DHT22;3639;51.308;5.624;2023-04-24T12:34:52;11.60;99.90
7196;DHT22;3639;51.308;5.624;2023-04-24T12:37:18;11.60;99.90
7196;DHT22;3639;51.308;5.624;2023-04-24T12:40:01;11.60;99.90
7196;DHT22;3639;51.308;5.624;2023-04-24T12:42:28;11.60;99.90
7196;DHT22;3639;51.308;5.624;2023-04-24T12:44:59;11.60;99.90
7196;DHT22;3639;51.308;5.624;2023-04-24T12:47:25;11.70;99.90
7196;DHT22;3639;51.308;5.624;2023-04-24T12:49:51;11.80;99.90
7196;DHT22;3639;51.308;5.624;2023-04-24T12:52:18;11.80;99.90
7196;DHT22;3639;51.308;5.624;2023-04-24T12:54:45;11.70;99.90
7196;DHT22;3639;51.308;5.624;2023-04-24T12:57:11;11.60;99.90
7196;DHT22;3639;51.308;5.624;2023-04-24T12:59:37;11.60;99.90
7196;DHT22;3639;51.308;5.624;2023-04-24T13:02:04;11.40;99.90
7196;DHT22;3639;51.308;5.624;2023-04-24T13:04:30;11.30;99.90
7196;DHT22;3639;51.308;5.624;2023-04-24T13:06:56;11.30;99.90
7196;DHT22;3639;51.308;5.624;2023-04-24T13:09:21;11.30;99.90
7196;DHT22;3639;51.308;5.624;2023-04-24T13:11:47;11.40;99.90
7196;DHT22;3639;51.308;5.624;2023-04-24T13:14:18;11.50;99.90
7196;DHT22;3639;51.308;5.624;2023-04-24T13:16:43;11.50;99.90
7196;DHT22;3639;51.308;5.624;2023-04-24T13:19:09;11.50;99.90
7196;DHT22;3639;51.308;5.624;2023-04-24T13:21:34;11.60;99.90
7196;DHT22;3639;51.308;5.624;2023-04-24T13:24:00;11.80;99.90
7196;DHT22;3639;51.308;5.624;2023-04-24T13:26:26;12.00;99.90
7196;DHT22;3639;51.308;5.624;2023-04-24T13:28:52;12.20;99.90
7196;DHT22;3639;51.308;5.624;2023-04-24T13:31:18;12.20;99.90
7196;DHT22;3639;51.308;5.624;2023-04-24T13:33:43;12.00;99.90
7196;DHT22;3639;51.308;5.624;2023-04-24T13:36:09;12.00;99.90
7196;DHT22;3639;51.308;5.624;2023-04-24T13:38:34;12.00;99.90
7196;DHT22;3639;51.308;5.624;2023-04-24T13:41:00;12.00;99.90
7196;DHT22;3639;51.308;5.624;2023-04-24T13:43:26;12.00;99.90
7196;DHT22;3639;51.308;5.624;2023-04-24T13:45:52;12.00;99.90
7196;DHT22;3639;51.308;5.624;2023-04-24T13:48:17;12.10;99.90
7196;DHT22;3639;51.308;5.624;2023-04-24T13:50:43;12.20;99.90
7196;DHT22;3639;51.308;5.624;2023-04-24T13:53:09;12.20;99.90
7196;DHT22;3639;51.308;5.624;2023-04-24T13:55:35;12.20;99.90
7196;DHT22;3639;51.308;5.624;2023-04-24T13:58:01;12.30;99.90
7196;DHT22;3639;51.308;5.624;2023-04-24T14:00:28;12.40;99.90
7196;DHT22;3639;51.308;5.624;2023-04-24T14:02:53;12.40;99.90
7196;DHT22;3639;51.308;5.624;2023-04-24T14:05:19;12.50;99.90
7196;DHT22;3639;51.308;5.624;2023-04-24T14:07:46;12.60;99.90
7196;DHT22;3639;51.308;5.624;2023-04-24T14:10:12;12.50;99.90
7196;DHT22;3639;51.308;5.624;2023-04-24T14:12:38;12.50;99.90
7196;DHT22;3639;51.308;5.624;2023-04-24T14:15:04;12.50;99.90
7196;DHT22;3639;51.308;5.624;2023-04-24T14:17:30;12.50;99.90
7196;DHT22;3639;51.308;5.624;2023-04-24T14:19:56;12.40;99.90
7196;DHT22;3639;51.308;5.624;2023-04-24T14:22:22;12.40;99.90
7196;DHT22;3639;51.308;5.624;2023-04-24T14:24:48;12.30;99.90
7196;DHT22;3639;51.308;5.624;2023-04-24T14:27:13;12.20;99.90
7196;DHT22;3639;51.308;5.624;2023-04-24T14:29:39;12.10;99.90
7196;DHT22;3639;51.308;5.624;2023-04-24T14:32:05;12.10;99.90
7196;DHT22;3639;51.308;5.624;2023-04-24T14:34:30;12.30;99.90
7196;DHT22;3639;51.308;5.624;2023-04-24T14:36:56;12.20;99.90
